createdAt,value
2019-03-31T00:00:32.119Z,97127.23
2019-03-31T00:03:01.810Z,97131.00
2019-03-31T00:05:31.427Z,97132.19
2019-03-31T00:08:01.057Z,97129.06
2019-03-31T00:10:30.748Z,97125.87
2019-03-31T00:13:00.341Z,97125.25
2019-03-31T00:15:29.984Z,97125.16
2019-03-31T00:17:59.567Z,97121.84
2019-03-31T00:20:29.274Z,97120.30
2019-03-31T00:22:58.898Z,97121.00
2019-03-31T00:25:28.515Z,97119.40
2019-03-31T00:27:58.110Z,97112.05
2019-03-31T00:30:27.725Z,97113.71
2019-03-31T00:32:57.343Z,97116.86
2019-03-31T00:35:26.949Z,97112.52
2019-03-31T00:37:56.535Z,97114.89
2019-03-31T00:40:26.223Z,97114.35
2019-03-31T00:42:55.813Z,97109.73
2019-03-31T00:45:25.428Z,97113.55
2019-03-31T00:47:55.045Z,97107.53
2019-03-31T00:50:24.694Z,97101.53
2019-03-31T00:52:54.273Z,97104.26
2019-03-31T00:55:24.000Z,97108.88
2019-03-31T00:57:53.586Z,97102.31
2019-03-31T01:00:41.837Z,97104.63
2019-03-31T01:03:11.866Z,97096.41
2019-03-31T01:05:44.298Z,97092.83
2019-03-31T01:08:14.765Z,97093.62
2019-03-31T01:10:44.668Z,97090.89
2019-03-31T01:13:14.827Z,97084.48
2019-03-31T01:15:44.781Z,97083.81
2019-03-31T01:18:14.535Z,97084.30
2019-03-31T01:20:44.465Z,97075.98
2019-03-31T01:23:14.082Z,97080.42
2019-03-31T01:25:43.773Z,97077.66
2019-03-31T01:28:13.381Z,97075.70
2019-03-31T01:30:43.133Z,97070.17
2019-03-31T01:33:12.991Z,97068.52
2019-03-31T01:35:44.227Z,97070.74
2019-03-31T01:38:14.159Z,97070.36
2019-03-31T01:40:43.962Z,97062.96
2019-03-31T01:43:13.650Z,97062.45
2019-03-31T01:45:43.373Z,97064.53
2019-03-31T01:48:12.971Z,97070.29
2019-03-31T01:50:42.902Z,97069.73
2019-03-31T01:53:12.493Z,97060.59
2019-03-31T01:55:42.174Z,97058.61
2019-03-31T01:58:11.940Z,97061.16
2019-03-31T02:00:45.943Z,97056.45
2019-03-31T02:03:15.538Z,97056.22
2019-03-31T02:05:45.197Z,97056.12
2019-03-31T02:08:14.891Z,97052.95
2019-03-31T02:10:44.468Z,97055.97
2019-03-31T02:13:14.161Z,97055.79
2019-03-31T02:15:44.357Z,97052.14
2019-03-31T02:18:14.023Z,97050.04
2019-03-31T02:20:43.715Z,97046.20
2019-03-31T02:23:13.302Z,97042.66
2019-03-31T02:25:42.919Z,97038.39
2019-03-31T02:28:12.548Z,97038.16
2019-03-31T02:30:42.141Z,97038.08
2019-03-31T02:33:11.776Z,97039.36
2019-03-31T02:35:41.537Z,97040.04
2019-03-31T02:38:11.150Z,97031.52
2019-03-31T02:40:40.745Z,97028.20
2019-03-31T02:43:10.425Z,97028.98
2019-03-31T02:45:40.015Z,97026.72
2019-03-31T02:48:09.633Z,97023.41
2019-03-31T02:50:51.665Z,97028.78
2019-03-31T02:53:21.664Z,97020.60
2019-03-31T02:55:53.666Z,97024.41
2019-03-31T02:58:23.428Z,97024.48
2019-03-31T03:00:54.151Z,97019.28
2019-03-31T03:03:23.941Z,97018.19
2019-03-31T03:05:56.599Z,97021.45
2019-03-31T03:08:31.126Z,97024.09
2019-03-31T03:11:03.970Z,97021.36
2019-03-31T03:13:35.678Z,97019.51
2019-03-31T03:16:09.855Z,97017.86
2019-03-31T03:18:39.478Z,97024.53
2019-03-31T03:21:09.196Z,97017.64
2019-03-31T03:23:38.767Z,97024.88
2019-03-31T03:26:08.386Z,97016.62
2019-03-31T03:28:37.977Z,97017.83
2019-03-31T03:31:14.541Z,97012.66
2019-03-31T03:33:38.993Z,97018.78
2019-03-31T03:36:08.604Z,97010.44
2019-03-31T03:38:38.197Z,97009.98
2019-03-31T03:41:07.815Z,97002.81
2019-03-31T03:43:53.997Z,97008.03
2019-03-31T03:46:09.085Z,97005.58
2019-03-31T03:48:38.694Z,97007.66
2019-03-31T03:51:08.311Z,97011.40
2019-03-31T03:53:37.926Z,97011.28
2019-03-31T03:56:07.558Z,97016.63
2019-03-31T03:58:37.142Z,97010.55
2019-03-31T04:01:08.573Z,97010.31
2019-03-31T04:03:38.155Z,97011.78
2019-03-31T04:06:07.848Z,97002.27
2019-03-31T04:08:37.439Z,97003.47
2019-03-31T04:11:20.791Z,97002.50
2019-03-31T04:13:48.058Z,97009.66
2019-03-31T04:16:17.674Z,97010.67
2019-03-31T04:18:47.344Z,97010.11
2019-03-31T04:21:17.029Z,97006.87
2019-03-31T04:23:46.653Z,97000.25
2019-03-31T04:26:16.409Z,97003.19
2019-03-31T04:28:45.986Z,97010.84
2019-03-31T04:31:15.929Z,97004.73
2019-03-31T04:33:51.678Z,97009.38
2019-03-31T04:36:17.027Z,97008.91
2019-03-31T04:38:46.708Z,97012.85
2019-03-31T04:41:16.442Z,97012.91
2019-03-31T04:43:46.060Z,97016.28
2019-03-31T04:46:15.679Z,97014.03
2019-03-31T04:48:45.530Z,97019.47
2019-03-31T04:51:15.287Z,97017.89
2019-03-31T04:53:44.882Z,97020.64
2019-03-31T04:56:14.502Z,97024.82
2019-03-31T04:58:44.090Z,97025.79
2019-03-31T05:01:13.759Z,97022.13
2019-03-31T05:03:43.365Z,97028.67
2019-03-31T05:06:13.023Z,97028.55
2019-03-31T05:08:42.684Z,97029.59
2019-03-31T05:11:12.301Z,97031.49
2019-03-31T05:13:41.995Z,97029.95
2019-03-31T05:16:11.617Z,97028.94
2019-03-31T05:18:41.310Z,97025.80
2019-03-31T05:21:11.667Z,97029.58
2019-03-31T05:23:41.285Z,97036.41
2019-03-31T05:26:10.874Z,97037.02
2019-03-31T05:28:43.963Z,97035.98
2019-03-31T05:31:11.893Z,97036.67
2019-03-31T05:33:41.521Z,97044.01
2019-03-31T05:36:11.114Z,97051.94
2019-03-31T05:38:40.733Z,97056.38
2019-03-31T05:41:10.322Z,97049.42
2019-03-31T05:43:39.944Z,97051.66
2019-03-31T05:46:09.530Z,97056.72
2019-03-31T05:48:39.141Z,97055.88
2019-03-31T05:51:08.760Z,97056.08
2019-03-31T05:53:38.356Z,97060.38
2019-03-31T05:56:07.970Z,97061.16
2019-03-31T05:58:37.565Z,97066.91
2019-03-31T06:01:07.175Z,97065.61
2019-03-31T06:03:36.767Z,97061.97
2019-03-31T06:06:06.410Z,97069.25
2019-03-31T06:08:36.000Z,97073.24
2019-03-31T06:11:05.702Z,97070.45
2019-03-31T06:13:35.295Z,97078.82
2019-03-31T06:16:04.917Z,97076.89
2019-03-31T06:18:34.540Z,97078.70
2019-03-31T06:21:04.135Z,97078.33
2019-03-31T06:23:33.754Z,97078.28
2019-03-31T06:26:03.488Z,97080.11
2019-03-31T06:28:33.198Z,97083.27
2019-03-31T06:31:02.903Z,97090.55
2019-03-31T06:33:32.599Z,97087.30
2019-03-31T06:36:02.211Z,97084.25
2019-03-31T06:38:31.802Z,97084.08
2019-03-31T06:41:01.506Z,97084.02
2019-03-31T06:43:31.122Z,97080.91
2019-03-31T06:46:00.718Z,97081.22
2019-03-31T06:48:30.340Z,97073.73
2019-03-31T06:50:59.935Z,97073.91
2019-03-31T06:53:29.585Z,97079.21
2019-03-31T06:55:59.185Z,97076.88
2019-03-31T06:58:28.798Z,97082.20
2019-03-31T07:00:58.414Z,97077.20
2019-03-31T07:03:28.111Z,97087.53
2019-03-31T07:05:57.722Z,97086.33
2019-03-31T07:08:27.428Z,97080.14
2019-03-31T07:10:57.030Z,97080.36
2019-03-31T07:13:26.655Z,97077.47
2019-03-31T07:15:56.256Z,97075.44
2019-03-31T07:18:25.859Z,97080.73
2019-03-31T07:20:55.482Z,97073.69
2019-03-31T07:23:25.103Z,97074.77
2019-03-31T07:25:54.731Z,97074.31
2019-03-31T07:28:24.364Z,97075.34
2019-03-31T07:30:53.968Z,97080.05
2019-03-31T07:33:23.590Z,97080.82
2019-03-31T07:35:53.191Z,97074.23
2019-03-31T07:38:22.811Z,97069.83
2019-03-31T07:40:52.567Z,97079.44
2019-03-31T07:43:22.313Z,97078.83
2019-03-31T07:45:51.940Z,97077.48
2019-03-31T07:48:21.536Z,97077.23
2019-03-31T07:50:51.174Z,97078.41
2019-03-31T07:53:20.779Z,97074.71
2019-03-31T07:55:50.406Z,97075.36
2019-03-31T07:58:20.000Z,97069.05
2019-03-31T08:00:49.710Z,97069.78
2019-03-31T08:03:19.307Z,97067.96
2019-03-31T08:05:48.908Z,97061.51
2019-03-31T08:08:18.538Z,97061.32
2019-03-31T08:10:48.169Z,97063.96
2019-03-31T08:13:17.770Z,97061.69
2019-03-31T08:15:47.397Z,97058.95
2019-03-31T08:18:16.995Z,97057.24
2019-03-31T08:20:46.631Z,97054.14
2019-03-31T08:23:16.226Z,97057.48
2019-03-31T08:25:45.851Z,97053.39
2019-03-31T08:28:15.476Z,97049.55
2019-03-31T08:30:45.075Z,97047.82
2019-03-31T08:33:14.702Z,97055.36
2019-03-31T08:35:47.759Z,97045.19
2019-03-31T08:38:15.671Z,97046.67
2019-03-31T08:40:45.268Z,97050.58
2019-03-31T08:43:14.898Z,97047.88
2019-03-31T08:45:44.503Z,97044.83
2019-03-31T08:48:14.135Z,97047.86
2019-03-31T08:50:43.738Z,97038.52
2019-03-31T08:53:13.358Z,97038.01
2019-03-31T08:55:43.005Z,97037.64
2019-03-31T08:58:12.605Z,97040.71
2019-03-31T09:00:43.921Z,97033.45
2019-03-31T09:03:22.280Z,97025.85
2019-03-31T09:06:01.535Z,97029.91
2019-03-31T09:08:23.304Z,97031.77
2019-03-31T09:10:53.502Z,97023.37
2019-03-31T09:13:23.159Z,97024.34
2019-03-31T09:15:52.823Z,97029.27
2019-03-31T09:18:22.427Z,97025.89
2019-03-31T09:20:52.029Z,97020.75
2019-03-31T09:23:21.661Z,97021.61
2019-03-31T09:25:51.261Z,97015.13
2019-03-31T09:28:20.895Z,97014.13
2019-03-31T09:30:50.675Z,97006.22
2019-03-31T09:33:20.293Z,97008.66
2019-03-31T09:35:49.893Z,97005.37
2019-03-31T09:38:19.549Z,97010.13
2019-03-31T09:40:49.156Z,97010.61
2019-03-31T09:43:18.790Z,97007.47
2019-03-31T09:45:48.397Z,97006.03
2019-03-31T09:48:18.025Z,97002.97
2019-03-31T09:50:47.639Z,96995.86
2019-03-31T09:53:17.272Z,97006.50
2019-03-31T09:55:46.896Z,96998.91
2019-03-31T09:58:16.503Z,96998.98
2019-03-31T10:00:51.796Z,97000.38
2019-03-31T10:03:23.335Z,96992.63
2019-03-31T10:05:53.072Z,96997.58
2019-03-31T10:08:22.720Z,96996.22
2019-03-31T10:10:52.325Z,96993.49
2019-03-31T10:13:21.919Z,96992.73
2019-03-31T10:15:51.545Z,96980.05
2019-03-31T10:18:21.146Z,96975.63
2019-03-31T10:20:50.776Z,96975.31
2019-03-31T10:23:20.373Z,96977.34
2019-03-31T10:25:50.006Z,96975.03
2019-03-31T10:28:19.615Z,96966.25
2019-03-31T10:30:49.246Z,96964.43
2019-03-31T10:33:18.852Z,96954.52
2019-03-31T10:35:48.488Z,96952.75
2019-03-31T10:38:18.119Z,96957.33
2019-03-31T10:40:47.716Z,96950.34
2019-03-31T10:43:17.348Z,96944.98
2019-03-31T10:45:46.957Z,96938.84
2019-03-31T10:48:20.940Z,96935.84
2019-03-31T10:50:47.924Z,96945.16
2019-03-31T10:53:17.620Z,96936.66
2019-03-31T10:55:47.320Z,96930.75
2019-03-31T10:58:16.944Z,96937.63
2019-03-31T11:00:46.564Z,96936.75
2019-03-31T11:03:16.241Z,96938.91
2019-03-31T11:05:45.865Z,96938.49
2019-03-31T11:08:15.570Z,96932.78
2019-03-31T11:10:45.172Z,96930.13
2019-03-31T11:13:14.788Z,96935.77
2019-03-31T11:15:44.396Z,96925.52
2019-03-31T11:18:14.020Z,96923.09
2019-03-31T11:20:43.664Z,96924.81
2019-03-31T11:23:17.541Z,96920.66
2019-03-31T11:25:47.276Z,96919.70
2019-03-31T11:28:16.896Z,96923.46
2019-03-31T11:30:46.553Z,96916.02
2019-03-31T11:33:16.222Z,96914.57
2019-03-31T11:35:45.901Z,96919.30
2019-03-31T11:38:15.530Z,96913.78
2019-03-31T11:40:45.129Z,96910.42
2019-03-31T11:43:14.761Z,96911.72
2019-03-31T11:45:44.451Z,96898.65
2019-03-31T11:48:14.074Z,96902.48
2019-03-31T11:50:43.745Z,96900.57
2019-03-31T11:53:13.384Z,96899.17
2019-03-31T11:55:42.991Z,96892.67
2019-03-31T11:58:12.622Z,96891.83
2019-03-31T12:00:43.934Z,96889.77
2019-03-31T12:03:13.569Z,96886.66
2019-03-31T12:05:43.200Z,96884.55
2019-03-31T12:08:12.869Z,96880.56
2019-03-31T12:10:42.497Z,96876.45
2019-03-31T12:13:12.107Z,96875.48
2019-03-31T12:15:41.740Z,96873.88
2019-03-31T12:18:11.360Z,96874.16
2019-03-31T12:20:40.962Z,96862.17
2019-03-31T12:23:14.409Z,96854.74
2019-03-31T12:25:44.014Z,96860.67
2019-03-31T12:28:13.641Z,96858.38
2019-03-31T12:30:43.338Z,96848.10
2019-03-31T12:33:12.945Z,96850.47
2019-03-31T12:35:42.717Z,96854.81
2019-03-31T12:38:12.371Z,96846.68
2019-03-31T12:40:41.955Z,96844.28
2019-03-31T12:43:11.584Z,96845.02
2019-03-31T12:45:43.081Z,96842.29
2019-03-31T12:48:12.615Z,96839.30
2019-03-31T12:50:42.346Z,96842.81
2019-03-31T12:53:12.392Z,96834.66
2019-03-31T12:55:42.549Z,96831.81
2019-03-31T12:58:12.145Z,96824.94
2019-03-31T13:00:42.843Z,96825.81
2019-03-31T13:03:15.845Z,96815.92
2019-03-31T13:05:43.986Z,96814.43
2019-03-31T13:08:13.587Z,96807.67
2019-03-31T13:10:43.280Z,96812.81
2019-03-31T13:13:12.910Z,96807.77
2019-03-31T13:15:42.508Z,96803.88
2019-03-31T13:18:12.139Z,96802.07
2019-03-31T13:20:41.914Z,96806.98
2019-03-31T13:23:11.610Z,96797.31
2019-03-31T13:25:41.233Z,96794.95
2019-03-31T13:28:10.836Z,96793.58
2019-03-31T13:30:40.487Z,96789.43
2019-03-31T13:33:11.442Z,96786.20
2019-03-31T13:35:41.079Z,96787.67
2019-03-31T13:38:11.714Z,96784.26
2019-03-31T13:40:41.487Z,96778.71
2019-03-31T13:43:11.177Z,96780.48
2019-03-31T13:45:40.859Z,96776.89
2019-03-31T13:48:10.491Z,96781.06
2019-03-31T13:50:40.105Z,96771.25
2019-03-31T13:53:09.727Z,96775.72
2019-03-31T13:55:39.389Z,96772.18
2019-03-31T13:58:10.302Z,96775.58
2019-03-31T14:00:42.052Z,96768.48
2019-03-31T14:03:11.825Z,96763.20
2019-03-31T14:05:41.455Z,96763.61
2019-03-31T14:08:24.641Z,96769.14
2019-03-31T14:10:42.481Z,96764.88
2019-03-31T14:13:12.081Z,96764.90
2019-03-31T14:15:41.799Z,96755.28
2019-03-31T14:18:11.681Z,96759.09
2019-03-31T14:20:41.499Z,96756.77
2019-03-31T14:23:11.101Z,96756.25
2019-03-31T14:25:40.723Z,96749.24
2019-03-31T14:28:10.329Z,96744.84
2019-03-31T14:30:40.030Z,96741.97
2019-03-31T14:33:09.629Z,96737.57
2019-03-31T14:35:39.318Z,96742.12
2019-03-31T14:38:08.921Z,96738.77
2019-03-31T14:40:38.586Z,96742.64
2019-03-31T14:43:08.319Z,96735.95
2019-03-31T14:45:38.376Z,96732.09
2019-03-31T14:48:08.158Z,96738.54
2019-03-31T14:50:39.462Z,96733.44
2019-03-31T14:53:09.145Z,96731.47
2019-03-31T14:55:39.176Z,96732.78
2019-03-31T14:58:09.470Z,96729.58
2019-03-31T15:00:39.072Z,96726.55
2019-03-31T15:03:08.762Z,96722.83
2019-03-31T15:05:38.387Z,96720.75
2019-03-31T15:08:08.152Z,96709.36
2019-03-31T15:10:37.753Z,96714.84
2019-03-31T15:13:07.371Z,96715.27
2019-03-31T15:15:36.976Z,96717.06
2019-03-31T15:18:06.738Z,96727.15
2019-03-31T15:20:36.369Z,96720.17
2019-03-31T15:23:06.031Z,96715.51
2019-03-31T15:25:35.657Z,96719.97
2019-03-31T15:28:05.426Z,96725.34
2019-03-31T15:30:35.133Z,96728.16
2019-03-31T15:33:04.797Z,96722.77
2019-03-31T15:35:37.466Z,96726.86
2019-03-31T15:38:05.813Z,96727.46
2019-03-31T15:40:35.508Z,96726.06
2019-03-31T15:43:05.107Z,96725.80
2019-03-31T15:45:34.807Z,96724.91
2019-03-31T15:48:04.675Z,96728.38
2019-03-31T15:50:34.244Z,96727.50
2019-03-31T15:53:03.940Z,96727.03
2019-03-31T15:55:33.542Z,96728.16
2019-03-31T15:58:05.294Z,96727.45
2019-03-31T16:00:34.565Z,96730.58
2019-03-31T16:03:04.193Z,96726.29
2019-03-31T16:05:33.884Z,96726.20
2019-03-31T16:08:03.513Z,96726.00
2019-03-31T16:10:33.176Z,96723.16
2019-03-31T16:13:02.874Z,96726.19
2019-03-31T16:15:32.643Z,96722.36
2019-03-31T16:18:02.244Z,96720.86
2019-03-31T16:20:31.937Z,96722.73
2019-03-31T16:23:01.566Z,96722.75
2019-03-31T16:25:35.791Z,96721.02
2019-03-31T16:28:05.427Z,96727.22
2019-03-31T16:30:36.191Z,96723.34
2019-03-31T16:33:07.264Z,96730.34
2019-03-31T16:35:37.294Z,96725.27
2019-03-31T16:38:06.892Z,96728.76
2019-03-31T16:40:36.518Z,96726.43
2019-03-31T16:43:06.141Z,96719.92
2019-03-31T16:45:35.768Z,96723.33
2019-03-31T16:48:05.442Z,96725.41
2019-03-31T16:50:35.164Z,96724.27
2019-03-31T16:53:04.760Z,96720.80
2019-03-31T16:55:34.480Z,96721.23
2019-03-31T16:58:04.141Z,96717.95
2019-03-31T17:00:33.838Z,96721.77
2019-03-31T17:03:03.438Z,96718.41
2019-03-31T17:05:33.135Z,96725.31
2019-03-31T17:08:02.735Z,96719.09
2019-03-31T17:10:32.364Z,96719.52
2019-03-31T17:13:01.966Z,96724.49
2019-03-31T17:15:31.647Z,96729.05
2019-03-31T17:18:01.248Z,96730.70
2019-03-31T17:20:30.878Z,96728.50
2019-03-31T17:23:00.479Z,96729.55
2019-03-31T17:25:30.103Z,96734.98
2019-03-31T17:27:59.706Z,96735.81
2019-03-31T17:30:29.392Z,96739.90
2019-03-31T17:32:58.990Z,96739.91
2019-03-31T17:35:28.615Z,96742.55
2019-03-31T17:37:58.253Z,96744.02
2019-03-31T17:40:27.930Z,96745.66
2019-03-31T17:42:58.097Z,96751.19
2019-03-31T17:45:27.731Z,96753.02
2019-03-31T17:47:57.356Z,96755.98
2019-03-31T17:50:26.960Z,96758.23
2019-03-31T17:52:56.673Z,96766.30
2019-03-31T17:55:26.307Z,96769.60
2019-03-31T17:57:55.913Z,96770.74
2019-03-31T18:00:26.344Z,96772.69
2019-03-31T18:02:55.973Z,96782.39
2019-03-31T18:05:25.601Z,96782.19
2019-03-31T18:07:55.202Z,96781.58
2019-03-31T18:10:24.830Z,96787.98
2019-03-31T18:12:54.442Z,96787.77
2019-03-31T18:15:24.175Z,96795.81
2019-03-31T18:17:53.859Z,96792.81
2019-03-31T18:20:23.471Z,96802.75
2019-03-31T18:22:53.108Z,96803.72
2019-03-31T18:25:22.723Z,96812.42
2019-03-31T18:27:52.320Z,96816.41
2019-03-31T18:30:22.528Z,96815.04
2019-03-31T18:32:52.166Z,96819.56
2019-03-31T18:35:21.803Z,96819.23
2019-03-31T18:37:51.411Z,96819.58
2019-03-31T18:40:34.266Z,96822.98
2019-03-31T18:42:52.528Z,96827.81
2019-03-31T18:45:22.129Z,96828.77
2019-03-31T18:47:51.774Z,96834.42
2019-03-31T18:50:21.374Z,96842.09
2019-03-31T18:52:51.007Z,96840.63
2019-03-31T18:55:29.333Z,96851.28
2019-03-31T18:58:16.927Z,96854.80
2019-03-31T19:00:50.879Z,96857.30
2019-03-31T19:03:38.572Z,96862.84
2019-03-31T19:06:15.616Z,96865.98
2019-03-31T19:09:01.933Z,96869.09
2019-03-31T19:11:49.583Z,96874.14
2019-03-31T19:14:20.951Z,96880.11
2019-03-31T19:16:52.368Z,96884.59
2019-03-31T19:19:24.679Z,96877.28
2019-03-31T19:22:01.627Z,96881.80
2019-03-31T19:24:38.850Z,96888.87
2019-03-31T19:27:26.094Z,96887.59
2019-03-31T19:30:15.719Z,96895.23
2019-03-31T19:32:46.729Z,96899.73
2019-03-31T19:35:26.881Z,96909.05
2019-03-31T19:37:58.115Z,96914.63
2019-03-31T19:40:32.151Z,96922.29
2019-03-31T19:43:15.640Z,96923.60
2019-03-31T19:45:45.030Z,96922.47
2019-03-31T19:48:22.138Z,96924.16
2019-03-31T19:50:53.422Z,96926.02
2019-03-31T19:53:40.475Z,96932.39
2019-03-31T19:56:15.433Z,96933.83
2019-03-31T19:58:44.823Z,96929.18
2019-03-31T20:01:24.924Z,96934.19
2019-03-31T20:04:12.489Z,96936.48
2019-03-31T20:07:01.944Z,96937.07
2019-03-31T20:09:49.420Z,96939.67
2019-03-31T20:12:20.689Z,96943.56
2019-03-31T20:15:06.849Z,96940.88
2019-03-31T20:17:38.112Z,96947.14
2019-03-31T20:20:10.623Z,96944.64
2019-03-31T20:22:41.886Z,96948.06
2019-03-31T20:25:14.255Z,96944.29
2019-03-31T20:27:51.305Z,96949.06
2019-03-31T20:30:28.365Z,96945.80
2019-03-31T20:33:02.182Z,96949.21
2019-03-31T20:35:45.682Z,96950.66
2019-03-31T20:38:19.736Z,96951.42
2019-03-31T20:40:51.940Z,96952.44
2019-03-31T20:43:23.201Z,96956.66
2019-03-31T20:45:52.796Z,96957.68
2019-03-31T20:48:22.413Z,96966.78
2019-03-31T20:50:52.143Z,96967.20
2019-03-31T20:53:21.848Z,96969.66
2019-03-31T20:55:51.445Z,96975.53
2019-03-31T20:58:21.173Z,96974.91
2019-03-31T21:00:50.790Z,96976.80
2019-03-31T21:03:20.448Z,96979.97
2019-03-31T21:05:50.116Z,96979.05
2019-03-31T21:08:19.747Z,96980.98
2019-03-31T21:10:49.393Z,96979.23
2019-03-31T21:13:18.990Z,96988.52
2019-03-31T21:15:48.725Z,96987.53
2019-03-31T21:18:18.329Z,96987.10
2019-03-31T21:20:47.955Z,96987.16
2019-03-31T21:23:17.551Z,96990.95
2019-03-31T21:25:47.175Z,96993.57
2019-03-31T21:28:16.772Z,96991.91
2019-03-31T21:30:46.468Z,96990.20
2019-03-31T21:33:16.094Z,96993.91
2019-03-31T21:35:48.484Z,96996.73
2019-03-31T21:38:17.116Z,96995.23
2019-03-31T21:40:46.825Z,96996.03
2019-03-31T21:43:16.442Z,96990.93
2019-03-31T21:45:47.082Z,96992.73
2019-03-31T21:48:16.805Z,96999.05
2019-03-31T21:50:46.405Z,96994.26
2019-03-31T21:53:16.025Z,96997.47
2019-03-31T21:55:45.646Z,96990.18
2019-03-31T21:58:15.323Z,96989.75
2019-03-31T22:00:56.007Z,96987.92
2019-03-31T22:03:25.839Z,96990.13
2019-03-31T22:05:55.434Z,96987.08
2019-03-31T22:08:25.052Z,96985.90
2019-03-31T22:10:55.117Z,96982.82
2019-03-31T22:13:24.736Z,96984.20
2019-03-31T22:15:54.356Z,96983.67
2019-03-31T22:18:24.482Z,96991.18
2019-03-31T22:20:54.178Z,96992.64
2019-03-31T22:23:23.840Z,96992.77
2019-03-31T22:25:53.499Z,96983.38
2019-03-31T22:28:23.116Z,96988.58
2019-03-31T22:30:53.279Z,96985.59
2019-03-31T22:33:22.906Z,96981.98
2019-03-31T22:36:10.445Z,96979.33
2019-03-31T22:38:40.049Z,96985.70
2019-03-31T22:41:09.643Z,96988.38
2019-03-31T22:43:39.262Z,96988.72
2019-03-31T22:46:08.849Z,96983.73
2019-03-31T22:48:38.465Z,96980.75
2019-03-31T22:51:08.110Z,96986.34
2019-03-31T22:53:37.946Z,96987.15
2019-03-31T22:56:07.626Z,96989.89
2019-03-31T22:58:37.213Z,96987.05
2019-03-31T23:01:06.973Z,96983.89
2019-03-31T23:03:36.736Z,96989.70
2019-03-31T23:06:06.395Z,96982.38
2019-03-31T23:08:36.001Z,96995.14
2019-03-31T23:11:05.866Z,96989.98
2019-03-31T23:13:35.454Z,96990.16
2019-03-31T23:16:05.118Z,96981.27
2019-03-31T23:18:34.807Z,96983.98
2019-03-31T23:21:04.475Z,96985.80
2019-03-31T23:23:34.105Z,96986.86
2019-03-31T23:26:03.764Z,96988.18
2019-03-31T23:28:33.350Z,96986.62
2019-03-31T23:31:03.822Z,96986.31
2019-03-31T23:33:33.557Z,96982.69
2019-03-31T23:36:03.174Z,96982.33
2019-03-31T23:38:32.893Z,96980.66
2019-03-31T23:41:02.484Z,96979.38
2019-03-31T23:43:32.099Z,96985.36
2019-03-31T23:46:01.780Z,96987.38
2019-03-31T23:48:31.403Z,96986.97
2019-03-31T23:51:00.991Z,96989.92
2019-03-31T23:53:30.604Z,96990.62
2019-03-31T23:56:00.221Z,96986.59
2019-03-31T23:58:29.877Z,96993.12
